Flight Track Log - Related Links

Times and Time Zones

All times are in EDT time to prevent confusion due to time zone crossing. See the CPT8773 flight status page for this flight to view local times or setup timezone preferences in your user account.

Time Position Orientation Groundspeed Altitude Reporting Facility
EDT Latitude Longitude Course Direction KTS MPH feet Rate Location/Type
Mon 08:58:13 AM 42.9694 -106.5253 337° Northwest 121 139 7,600  Level Salt Lake Center
Mon 08:59:14 AM 43.0042 -106.5453 337° Northwest 120 138 8,200 590 Climbing Salt Lake Center
Mon 09:00:15 AM 43.0342 -106.5628 337° Northwest 121 139 8,800 545 Climbing Salt Lake Center
Mon 09:01:15 AM 43.0644 -106.5800 337° Northwest 122 140 9,300 545 Climbing Salt Lake Center
Mon 09:02:16 AM 43.0986 -106.5986 338° Northwest 121 139 9,900 541 Climbing Denver Center
Mon 09:03:17 AM 43.1253 -106.6167 334° Northwest 116 133 10,400 492 Climbing Denver Center
Mon 09:04:18 AM 43.1550 -106.6336 337° Northwest 119 137 10,900 541 Climbing Denver Center
Mon 09:05:19 AM 43.1894 -106.6542 336° Northwest 121 139 11,500 492 Climbing Denver Center
Mon 09:06:20 AM 43.2169 -106.6700 337° Northwest 116 133 11,900 246 Climbing Denver Center
Mon 09:07:21 AM 43.2486 -106.6864 339° North 122 140 12,000 49 Climbing Denver Center
Mon 09:08:22 AM 43.2911 -106.7092 339° North 141 162 12,000  Level Denver Center
Mon 09:09:23 AM 43.3275 -106.7297 338° Northwest 148 170 12,000  Level Denver Center
Mon 09:10:24 AM 43.3481 -106.7608 312° West 141 162 12,000  Level Denver Center
Mon 09:11:26 AM 43.3728 -106.8178 301° West 137 158 12,000  Level Denver Center
Mon 09:12:27 AM 43.3928 -106.8586 304° West 135 155 12,000  Level Denver Center
Mon 09:13:28 AM 43.4158 -106.9011 307° West 136 157 12,000  Level Denver Center
Mon 09:14:29 AM 43.4378 -106.9428 306° West 136 157 12,000  Level Denver Center
Mon 09:15:30 AM 43.4594 -106.9819 307° West 132 152 12,000  Level Denver Center
Mon 09:16:31 AM 43.4817 -107.0247 306° West 136 157 12,000  Level Denver Center
Mon 09:17:32 AM 43.5019 -107.0664 304° West 133 153 12,000  Level Denver Center
Mon 09:18:34 AM 43.5272 -107.1150 306° West 130 150 12,000  Level Denver Center
Mon 09:19:35 AM 43.5492 -107.1542 308° West 129 148 12,000  Level Denver Center
Mon 09:20:36 AM 43.5706 -107.1956 306° West 132 152 12,000  Level Denver Center
Mon 09:21:33 AM 43.5856 -107.2292 302° West 129 148 12,000  Level Salt Lake Center
Mon 09:22:33 AM 43.6106 -107.2797 304° West 132 152 12,000  Level Salt Lake Center
Mon 09:23:34 AM 43.6331 -107.3219 306° West 135 155 12,000  Level Salt Lake Center
Mon 09:24:35 AM 43.6553 -107.3644 306° West 136 157 12,000  Level Salt Lake Center
Mon 09:25:36 AM 43.6783 -107.4081 306° West 139 160 12,000  Level Salt Lake Center
Mon 09:26:37 AM 43.6994 -107.4483 306° West 135 155 12,000  Level Salt Lake Center
Mon 09:27:38 AM 43.7219 -107.4914 306° West 135 155 12,000  Level Salt Lake Center
Mon 09:28:39 AM 43.7447 -107.5339 307° West 136 157 12,000  Level Salt Lake Center
Mon 09:29:40 AM 43.7678 -107.5772 306° West 138 159 12,000  Level Salt Lake Center
Mon 09:30:41 AM 43.7889 -107.6203 304° West 137 158 12,000  Level Salt Lake Center
Mon 09:31:42 AM 43.8108 -107.6631 305° West 137 158 12,000  Level Salt Lake Center
Mon 09:32:43 AM 43.8342 -107.7056 307° West 138 159 12,000  Level Salt Lake Center
Mon 09:33:44 AM 43.8567 -107.7483 306° West 138 159 12,000  Level Salt Lake Center
Mon 09:34:45 AM 43.8822 -107.7983 305° West 136 157 12,000  Level Salt Lake Center
Mon 09:35:47 AM 43.9042 -107.8400 306° West 135 155 12,000  Level Salt Lake Center
Mon 09:36:48 AM 43.9258 -107.8819 306° West 134 154 12,000  Level Salt Lake Center
Mon 09:37:49 AM 43.9467 -107.9244 304° West 134 154 12,000  Level Salt Lake Center
Mon 09:38:50 AM 43.9692 -107.9664 307° West 134 154 12,000 -98 Level Salt Lake Center
Mon 09:39:51 AM 43.9936 -108.0053 311° West 135 155 11,800 -344 Descending Salt Lake Center
Mon 09:40:52 AM 44.0175 -108.0481 308° West 136 157 11,300 -390 Descending Salt Lake Center
Mon 09:41:54 AM 44.0414 -108.0925 307° West 139 160 11,000 -341 Descending Salt Lake Center
Mon 09:42:55 AM 44.0644 -108.1383 305° West 142 163 10,600 -443 Descending Salt Lake Center
Mon 09:43:56 AM 44.0886 -108.1842 306° West 144 166 10,100 -295 Descending Salt Lake Center
Mon 09:44:57 AM 44.1186 -108.2394 307° West 147 169 10,000 -49 Descending Salt Lake Center
Mon 09:45:58 AM 44.1422 -108.2878 304° West 149 171 10,000  Level Salt Lake Center
Mon 09:47:00 AM 44.1672 -108.3331 308° West 149 171 10,000  Level Salt Lake Center
Mon 09:48:01 AM 44.1914 -108.3786 307° West 148 170 10,000  Level Salt Lake Center
Mon 09:49:02 AM 44.2158 -108.4239 307° West 147 169 10,000  Level Salt Lake Center
Mon 09:50:04 AM 44.2394 -108.4689 306° West 146 168 10,000  Level Salt Lake Center
Mon 09:51:05 AM 44.2619 -108.5131 305° West 144 166 10,000  Level Salt Lake Center
Mon 09:52:06 AM 44.2853 -108.5550 308° West 141 162 10,000  Level Salt Lake Center
Mon 09:53:08 AM 44.3089 -108.5992 307° West 140 161 10,000  Level Salt Lake Center
Mon 09:54:09 AM 44.3325 -108.6436 307° West 141 162 10,000  Level Salt Lake Center

Login

Don't have an account? Register now (free) for customized features, flight alerts, and more!